createdAt,value
2022-10-05T00:00:09.272Z,11.99
2022-10-05T00:01:09.337Z,11.97
2022-10-05T00:02:09.372Z,11.99
2022-10-05T00:03:09.451Z,12.00
2022-10-05T00:04:09.502Z,12.03
2022-10-05T00:05:09.552Z,12.07
2022-10-05T00:06:09.592Z,12.08
2022-10-05T00:07:09.588Z,12.08
2022-10-05T00:08:09.567Z,12.07
2022-10-05T00:09:09.586Z,12.07
2022-10-05T00:10:09.614Z,12.07
2022-10-05T00:11:09.616Z,12.05
2022-10-05T00:12:09.634Z,12.00
2022-10-05T00:13:09.645Z,12.00
2022-10-05T00:14:09.703Z,11.99
2022-10-05T00:15:09.720Z,11.97
2022-10-05T00:16:09.792Z,11.95
2022-10-05T00:17:09.737Z,11.93
2022-10-05T00:18:09.791Z,11.93
2022-10-05T00:19:10.193Z,11.95
2022-10-05T00:20:09.899Z,11.97
2022-10-05T00:21:09.975Z,11.97
2022-10-05T00:22:10.026Z,11.97
2022-10-05T00:23:10.062Z,11.97
2022-10-05T00:24:10.130Z,11.99
2022-10-05T00:25:10.149Z,11.99
2022-10-05T00:26:10.157Z,11.97
2022-10-05T00:27:10.204Z,11.99
2022-10-05T00:28:10.287Z,11.96
2022-10-05T00:29:10.299Z,11.97
2022-10-05T00:30:10.259Z,11.97
2022-10-05T00:31:10.260Z,12.00
2022-10-05T00:32:10.426Z,12.00
2022-10-05T00:33:10.360Z,11.99
2022-10-05T00:34:10.399Z,12.00
2022-10-05T00:35:10.422Z,12.00
2022-10-05T00:36:10.450Z,12.00
2022-10-05T00:37:10.484Z,11.99
2022-10-05T00:38:10.551Z,12.02
2022-10-05T00:39:10.580Z,11.97
2022-10-05T00:40:10.585Z,11.96
2022-10-05T00:41:10.682Z,11.93
2022-10-05T00:42:10.741Z,11.88
2022-10-05T00:43:10.758Z,11.83
2022-10-05T00:44:10.775Z,11.83
2022-10-05T00:45:10.829Z,11.81
2022-10-05T00:46:11.686Z,11.80
2022-10-05T00:47:10.827Z,11.78
2022-10-05T00:48:10.895Z,11.76
2022-10-05T00:49:10.872Z,11.74
2022-10-05T00:50:10.962Z,11.73
2022-10-05T00:51:10.950Z,11.71
2022-10-05T00:52:10.994Z,11.78
2022-10-05T00:53:11.773Z,11.83
2022-10-05T00:54:14.698Z,11.88
2022-10-05T00:55:11.040Z,11.89
2022-10-05T00:56:11.132Z,11.91
2022-10-05T00:57:11.109Z,11.89
2022-10-05T00:58:11.142Z,11.89
2022-10-05T00:59:11.160Z,11.88
2022-10-05T01:00:11.249Z,11.88
2022-10-05T01:01:11.256Z,11.86
2022-10-05T01:02:11.376Z,11.86
2022-10-05T01:03:11.333Z,11.93
2022-10-05T01:04:12.187Z,11.93
2022-10-05T01:05:11.343Z,11.91
2022-10-05T01:06:11.377Z,11.86
2022-10-05T01:07:11.381Z,11.86
2022-10-05T01:08:11.423Z,11.88
2022-10-05T01:09:11.468Z,11.91
2022-10-05T01:10:11.476Z,11.91
2022-10-05T01:11:11.482Z,11.91
2022-10-05T01:12:11.468Z,11.89
2022-10-05T01:13:11.453Z,11.93
2022-10-05T01:14:11.501Z,11.95
2022-10-05T01:15:11.564Z,11.93
2022-10-05T01:16:11.725Z,11.97
2022-10-05T01:17:11.640Z,12.00
2022-10-05T01:18:11.724Z,12.05
2022-10-05T01:19:11.730Z,12.11
2022-10-05T01:20:11.730Z,12.12
2022-10-05T01:21:11.746Z,12.15
2022-10-05T01:22:11.796Z,12.17
2022-10-05T01:23:11.787Z,12.17
2022-10-05T01:24:11.783Z,12.12
2022-10-05T01:25:11.783Z,12.14
2022-10-05T01:26:11.900Z,12.11
2022-10-05T01:27:11.903Z,12.10
2022-10-05T01:28:11.951Z,12.08
2022-10-05T01:29:11.893Z,12.05
2022-10-05T01:30:11.884Z,12.10
2022-10-05T01:31:11.945Z,12.07
2022-10-05T01:32:11.947Z,12.10
2022-10-05T01:33:12.006Z,12.10
2022-10-05T01:34:11.991Z,12.10
2022-10-05T01:35:12.171Z,12.08
2022-10-05T01:36:12.136Z,12.05
2022-10-05T01:37:12.099Z,12.03
2022-10-05T01:38:12.120Z,12.03
2022-10-05T01:39:12.156Z,12.00
2022-10-05T01:40:12.213Z,12.02
2022-10-05T01:41:12.252Z,12.03
2022-10-05T01:42:12.217Z,12.03
2022-10-05T01:43:12.236Z,12.02
2022-10-05T01:44:12.265Z,12.00
2022-10-05T01:45:12.266Z,12.03
2022-10-05T01:46:12.301Z,12.05
2022-10-05T01:47:12.285Z,12.07
2022-10-05T01:48:12.263Z,12.05
2022-10-05T01:49:12.339Z,12.05
2022-10-05T01:50:12.357Z,12.07
2022-10-05T01:51:12.377Z,12.05
2022-10-05T01:52:12.421Z,12.05
2022-10-05T01:53:12.439Z,12.03
2022-10-05T01:54:12.459Z,11.99
2022-10-05T01:55:12.480Z,11.96
2022-10-05T01:56:12.480Z,11.93
2022-10-05T01:57:12.523Z,11.88
2022-10-05T01:58:12.545Z,11.81
2022-10-05T01:59:12.582Z,11.81
2022-10-05T02:00:12.632Z,11.78
2022-10-05T02:01:12.731Z,11.74
2022-10-05T02:02:12.856Z,11.71
2022-10-05T02:03:12.766Z,11.74
2022-10-05T02:04:24.407Z,11.77
2022-10-05T02:05:12.783Z,11.85
2022-10-05T02:06:12.822Z,11.88
2022-10-05T02:07:12.824Z,11.89
2022-10-05T02:08:12.814Z,11.95
2022-10-05T02:09:12.828Z,11.96
2022-10-05T02:10:12.845Z,11.96
2022-10-05T02:11:12.855Z,11.97
2022-10-05T02:12:12.865Z,11.99
2022-10-05T02:13:12.864Z,12.00
2022-10-05T02:14:12.853Z,12.02
2022-10-05T02:15:12.846Z,12.03
2022-10-05T02:16:12.950Z,12.05
2022-10-05T02:17:12.911Z,12.05
2022-10-05T02:18:12.909Z,12.05
2022-10-05T02:19:12.907Z,12.05
2022-10-05T02:20:12.890Z,12.08
2022-10-05T02:21:13.029Z,12.11
2022-10-05T02:22:13.031Z,12.12
2022-10-05T02:23:13.119Z,12.11
2022-10-05T02:24:13.111Z,12.10
2022-10-05T02:25:13.089Z,12.10
2022-10-05T02:26:13.171Z,12.10
2022-10-05T02:27:13.883Z,12.14
2022-10-05T02:28:13.257Z,12.14
2022-10-05T02:29:13.232Z,12.17
2022-10-05T02:30:16.531Z,12.18
2022-10-05T02:31:13.323Z,12.20
2022-10-05T02:32:13.281Z,12.21
2022-10-05T02:33:13.361Z,12.28
2022-10-05T02:34:13.349Z,12.28
2022-10-05T02:35:13.402Z,12.26
2022-10-05T02:36:13.469Z,12.26
2022-10-05T02:37:13.462Z,12.25
2022-10-05T02:38:13.456Z,12.23
2022-10-05T02:39:13.462Z,12.25
2022-10-05T02:40:13.462Z,12.21
2022-10-05T02:41:13.458Z,12.20
2022-10-05T02:42:13.443Z,12.21
2022-10-05T02:43:13.463Z,12.21
2022-10-05T02:44:13.531Z,12.25
2022-10-05T02:45:13.763Z,12.26
2022-10-05T02:46:13.777Z,12.26
2022-10-05T02:47:13.674Z,12.28
2022-10-05T02:48:13.705Z,12.29
2022-10-05T02:49:13.736Z,12.30
2022-10-05T02:50:13.755Z,12.29
2022-10-05T02:51:13.786Z,12.32
2022-10-05T02:52:13.789Z,12.32
2022-10-05T02:53:13.797Z,12.33
2022-10-05T02:54:13.825Z,12.33
2022-10-05T02:55:13.815Z,12.30
2022-10-05T02:56:13.816Z,12.30
2022-10-05T02:57:13.817Z,12.29
2022-10-05T02:58:13.827Z,12.30
2022-10-05T02:59:13.818Z,12.32
2022-10-05T03:00:13.819Z,12.32
2022-10-05T03:01:13.889Z,12.30
2022-10-05T03:02:13.881Z,12.30
2022-10-05T03:03:13.869Z,12.29
2022-10-05T03:04:13.879Z,12.32
2022-10-05T03:05:13.868Z,12.35
2022-10-05T03:06:13.950Z,12.33
2022-10-05T03:07:13.990Z,12.35
2022-10-05T03:08:13.971Z,12.36
2022-10-05T03:09:14.069Z,12.36
2022-10-05T03:10:14.061Z,12.37
2022-10-05T03:11:14.053Z,12.39
2022-10-05T03:12:14.052Z,12.45
2022-10-05T03:13:14.032Z,12.47
2022-10-05T03:14:14.112Z,12.45
2022-10-05T03:15:14.134Z,12.48
2022-10-05T03:16:14.297Z,12.48
2022-10-05T03:17:14.192Z,12.50
2022-10-05T03:18:14.173Z,12.51
2022-10-05T03:19:14.236Z,12.51
2022-10-05T03:20:14.315Z,12.53
2022-10-05T03:21:15.256Z,12.54
2022-10-05T03:22:14.334Z,12.62
2022-10-05T03:23:14.323Z,12.65
2022-10-05T03:24:14.316Z,12.66
2022-10-05T03:25:14.304Z,12.66
2022-10-05T03:26:14.326Z,12.69
2022-10-05T03:27:14.328Z,12.70
2022-10-05T03:28:14.341Z,12.69
2022-10-05T03:29:14.327Z,12.66
2022-10-05T03:30:14.327Z,12.66
2022-10-05T03:31:14.407Z,12.65
2022-10-05T03:32:14.318Z,12.63
2022-10-05T03:33:14.372Z,12.61
2022-10-05T03:34:14.348Z,12.58
2022-10-05T03:35:14.407Z,12.57
2022-10-05T03:36:14.487Z,12.57
2022-10-05T03:37:14.469Z,12.61
2022-10-05T03:38:17.195Z,12.61
2022-10-05T03:39:14.471Z,12.57
2022-10-05T03:40:14.499Z,12.57
2022-10-05T03:41:15.229Z,12.58
2022-10-05T03:42:14.541Z,12.58
2022-10-05T03:43:15.270Z,12.62
2022-10-05T03:44:14.640Z,12.66
2022-10-05T03:45:14.630Z,12.72
2022-10-05T03:46:15.598Z,12.72
2022-10-05T03:47:15.421Z,12.75
2022-10-05T03:48:14.811Z,12.76
2022-10-05T03:49:14.852Z,12.76
2022-10-05T03:50:14.822Z,12.76
2022-10-05T03:51:14.813Z,12.83
2022-10-05T03:52:14.842Z,12.87
2022-10-05T03:53:15.553Z,12.87
2022-10-05T03:54:14.903Z,12.87
2022-10-05T03:55:14.902Z,12.88
2022-10-05T03:56:14.926Z,12.88
2022-10-05T03:57:15.836Z,12.88
2022-10-05T03:58:14.998Z,12.88
2022-10-05T03:59:15.654Z,12.88
2022-10-05T04:00:15.875Z,12.88
2022-10-05T04:01:15.717Z,12.93
2022-10-05T04:02:15.985Z,12.91
2022-10-05T04:03:15.044Z,12.90
2022-10-05T04:04:15.076Z,12.90
2022-10-05T04:05:15.146Z,12.90
2022-10-05T04:06:16.095Z,12.91
2022-10-05T04:07:15.187Z,12.95
2022-10-05T04:08:15.194Z,13.03
2022-10-05T04:09:15.187Z,13.03
2022-10-05T04:10:15.218Z,13.02
2022-10-05T04:11:15.289Z,13.05
2022-10-05T04:12:15.278Z,13.05
2022-10-05T04:13:15.330Z,13.02
2022-10-05T04:14:15.378Z,13.01
2022-10-05T04:15:18.907Z,12.98
2022-10-05T04:16:15.547Z,12.98
2022-10-05T04:17:15.429Z,12.94
2022-10-05T04:18:15.430Z,12.90
2022-10-05T04:19:15.500Z,12.91
2022-10-05T04:20:16.295Z,12.88
2022-10-05T04:21:20.142Z,12.88
2022-10-05T04:22:15.660Z,12.87
2022-10-05T04:23:15.619Z,12.93
2022-10-05T04:24:15.638Z,13.01
2022-10-05T04:25:15.634Z,13.03
2022-10-05T04:26:15.731Z,13.02
2022-10-05T04:27:15.738Z,13.03
2022-10-05T04:28:15.777Z,13.05
2022-10-05T04:29:15.778Z,13.03
2022-10-05T04:30:16.732Z,13.09
2022-10-05T04:31:15.899Z,13.08
2022-10-05T04:32:15.975Z,13.11
2022-10-05T04:33:15.835Z,13.09
2022-10-05T04:34:15.845Z,13.12
2022-10-05T04:35:15.845Z,13.16
2022-10-05T04:36:15.845Z,13.16
2022-10-05T04:37:15.906Z,13.16
2022-10-05T04:38:15.957Z,13.17
2022-10-05T04:39:16.007Z,13.20
2022-10-05T04:40:16.047Z,13.16
2022-10-05T04:41:16.069Z,13.17
2022-10-05T04:42:16.116Z,13.11
2022-10-05T04:43:16.143Z,13.11
2022-10-05T04:44:16.229Z,13.08
2022-10-05T04:45:16.188Z,13.08
2022-10-05T04:46:16.276Z,13.08
2022-10-05T04:47:16.258Z,13.13
2022-10-05T04:48:16.298Z,13.17
2022-10-05T04:49:16.326Z,13.17
2022-10-05T04:50:16.369Z,13.17
2022-10-05T04:51:16.360Z,13.13
2022-10-05T04:52:16.410Z,13.09
2022-10-05T04:53:16.450Z,13.06
2022-10-05T04:54:16.450Z,13.03
2022-10-05T04:55:16.471Z,13.08
2022-10-05T04:56:16.591Z,13.06
2022-10-05T04:57:16.554Z,13.08
2022-10-05T04:58:16.610Z,13.08
2022-10-05T04:59:16.672Z,13.05
2022-10-05T05:00:16.666Z,13.03
2022-10-05T05:01:16.768Z,13.01
2022-10-05T05:02:16.781Z,13.02
2022-10-05T05:03:16.822Z,12.98
2022-10-05T05:04:16.883Z,12.95
2022-10-05T05:05:16.918Z,12.95
2022-10-05T05:06:18.226Z,12.93
2022-10-05T05:07:16.975Z,12.94
2022-10-05T05:08:16.985Z,12.95
2022-10-05T05:09:17.055Z,12.98
2022-10-05T05:10:17.042Z,12.99
2022-10-05T05:11:20.053Z,13.02
2022-10-05T05:12:17.126Z,13.01
2022-10-05T05:13:17.127Z,12.99
2022-10-05T05:14:17.126Z,12.94
2022-10-05T05:15:17.127Z,12.90
2022-10-05T05:16:17.247Z,12.88
2022-10-05T05:17:17.196Z,12.87
2022-10-05T05:18:17.198Z,12.84
2022-10-05T05:19:17.198Z,12.84
2022-10-05T05:20:17.186Z,12.81
2022-10-05T05:21:17.248Z,12.81
2022-10-05T05:22:17.318Z,12.80
2022-10-05T05:23:17.329Z,12.80
2022-10-05T05:24:17.348Z,12.80
2022-10-05T05:25:17.379Z,12.83
2022-10-05T05:26:17.449Z,12.81
2022-10-05T05:27:17.469Z,12.83
2022-10-05T05:28:17.503Z,12.81
2022-10-05T05:29:17.495Z,12.80
2022-10-05T05:30:17.549Z,12.80
2022-10-05T05:31:17.663Z,12.80
2022-10-05T05:32:17.678Z,12.76
2022-10-05T05:33:17.690Z,12.76
2022-10-05T05:34:18.386Z,12.80
2022-10-05T05:35:17.711Z,12.81
2022-10-05T05:36:22.844Z,12.87
2022-10-05T05:37:17.813Z,12.90
2022-10-05T05:38:18.122Z,12.90
2022-10-05T05:39:19.805Z,12.87
2022-10-05T05:40:17.968Z,12.87
2022-10-05T05:41:17.945Z,12.90
2022-10-05T05:42:17.971Z,12.88
2022-10-05T05:43:18.004Z,12.90
2022-10-05T05:44:18.022Z,12.90
2022-10-05T05:45:18.018Z,12.93
2022-10-05T05:46:18.070Z,12.90
2022-10-05T05:47:18.081Z,12.91
2022-10-05T05:48:18.027Z,12.93
2022-10-05T05:49:18.056Z,12.93
2022-10-05T05:50:18.066Z,12.94
2022-10-05T05:51:18.076Z,12.95
2022-10-05T05:52:18.080Z,12.98
2022-10-05T05:53:18.077Z,12.99
2022-10-05T05:54:18.102Z,13.01
2022-10-05T05:55:18.159Z,13.02
2022-10-05T05:56:18.187Z,13.01
2022-10-05T05:57:18.228Z,13.01
2022-10-05T05:58:18.260Z,13.03
2022-10-05T05:59:18.309Z,13.06
2022-10-05T06:00:18.362Z,13.08
2022-10-05T06:01:32.110Z,13.08
2022-10-05T06:02:18.479Z,13.11
2022-10-05T06:03:18.541Z,13.09
2022-10-05T06:04:18.490Z,13.09
2022-10-05T06:05:18.530Z,13.11
2022-10-05T06:06:18.561Z,13.12
2022-10-05T06:07:18.581Z,13.16
2022-10-05T06:08:18.601Z,13.16
2022-10-05T06:09:18.612Z,13.20
2022-10-05T06:10:18.630Z,13.23
2022-10-05T06:11:18.643Z,13.23
2022-10-05T06:12:18.714Z,13.24
2022-10-05T06:13:18.774Z,13.27
2022-10-05T06:14:18.766Z,13.27
2022-10-05T06:15:18.824Z,13.27
2022-10-05T06:16:18.939Z,13.30
2022-10-05T06:17:18.932Z,13.30
2022-10-05T06:18:18.954Z,13.31
2022-10-05T06:19:18.975Z,13.33
2022-10-05T06:20:19.027Z,13.36
2022-10-05T06:21:19.095Z,13.36
2022-10-05T06:22:19.165Z,13.42
2022-10-05T06:23:19.258Z,13.42
2022-10-05T06:24:19.215Z,13.45
2022-10-05T06:25:19.226Z,13.49
2022-10-05T06:26:19.227Z,13.50
2022-10-05T06:27:19.277Z,13.55
2022-10-05T06:28:19.378Z,13.58
2022-10-05T06:29:19.339Z,13.61
2022-10-05T06:30:19.398Z,13.65
2022-10-05T06:31:19.416Z,13.68
2022-10-05T06:32:19.450Z,13.67
2022-10-05T06:33:19.512Z,13.73
2022-10-05T06:34:19.539Z,13.78
2022-10-05T06:35:19.569Z,13.78
2022-10-05T06:36:19.619Z,13.83
2022-10-05T06:37:19.640Z,13.85
2022-10-05T06:38:19.620Z,13.85
2022-10-05T06:39:19.692Z,13.87
2022-10-05T06:40:19.742Z,13.85
2022-10-05T06:41:19.742Z,13.94
2022-10-05T06:42:19.771Z,14.31
2022-10-05T06:43:19.803Z,14.26
2022-10-05T06:44:19.806Z,14.18
2022-10-05T06:45:19.843Z,14.12
2022-10-05T06:46:19.913Z,14.08
2022-10-05T06:47:19.872Z,14.08
2022-10-05T06:48:19.904Z,14.07
2022-10-05T06:49:19.953Z,14.05
2022-10-05T06:50:19.954Z,14.05
2022-10-05T06:51:19.945Z,14.00
2022-10-05T06:52:20.025Z,13.98
2022-10-05T06:53:20.035Z,14.01
2022-10-05T06:54:20.092Z,14.01
2022-10-05T06:55:20.139Z,14.01
2022-10-05T06:56:20.136Z,14.03
2022-10-05T06:57:20.201Z,14.00
2022-10-05T06:58:20.207Z,14.03
2022-10-05T06:59:20.241Z,14.04
2022-10-05T07:00:20.247Z,14.05
2022-10-05T07:01:20.289Z,14.08
2022-10-05T07:02:20.393Z,14.08
2022-10-05T07:03:20.279Z,14.13
2022-10-05T07:04:20.268Z,14.12
2022-10-05T07:05:20.282Z,14.13
2022-10-05T07:06:20.290Z,14.12
2022-10-05T07:07:20.320Z,14.15
2022-10-05T07:08:20.321Z,14.18
2022-10-05T07:09:20.332Z,14.19
2022-10-05T07:10:20.341Z,14.20
2022-10-05T07:11:20.337Z,14.23
2022-10-05T07:12:20.394Z,14.26
2022-10-05T07:13:20.404Z,14.23
2022-10-05T07:14:20.461Z,14.26
2022-10-05T07:15:20.492Z,14.28
2022-10-05T07:16:20.578Z,14.30
2022-10-05T07:17:20.573Z,14.28
2022-10-05T07:18:20.614Z,14.31
2022-10-05T07:19:20.663Z,14.34
2022-10-05T07:20:20.734Z,14.36
2022-10-05T07:21:20.753Z,14.38
2022-10-05T07:22:20.735Z,14.43
2022-10-05T07:23:20.805Z,14.44
2022-10-05T07:24:20.863Z,14.51
2022-10-05T07:25:20.846Z,14.52
2022-10-05T07:26:20.847Z,14.53
2022-10-05T07:27:20.886Z,14.51
2022-10-05T07:28:20.925Z,14.59
2022-10-05T07:29:20.897Z,14.63
2022-10-05T07:30:20.916Z,14.61
2022-10-05T07:31:21.034Z,14.61
2022-10-05T07:32:20.979Z,14.63
2022-10-05T07:33:21.019Z,14.62
2022-10-05T07:34:21.076Z,14.62
2022-10-05T07:35:21.089Z,14.62
2022-10-05T07:36:21.108Z,14.68
2022-10-05T07:37:21.119Z,14.68
2022-10-05T07:38:21.091Z,14.70
2022-10-05T07:39:21.393Z,14.68
2022-10-05T07:40:21.200Z,14.73
2022-10-05T07:41:21.203Z,14.81
2022-10-05T07:42:21.222Z,14.87
2022-10-05T07:43:21.253Z,14.82
2022-10-05T07:44:21.304Z,14.77
2022-10-05T07:45:21.356Z,14.73
2022-10-05T07:46:21.407Z,14.71
2022-10-05T07:47:21.395Z,14.73
2022-10-05T07:48:21.433Z,14.78
2022-10-05T07:49:21.520Z,14.79
2022-10-05T07:50:21.544Z,14.82
2022-10-05T07:51:21.574Z,14.81
2022-10-05T07:52:21.575Z,14.87
2022-10-05T07:53:21.646Z,14.87
2022-10-05T07:54:21.597Z,14.87
2022-10-05T07:55:21.647Z,14.92
2022-10-05T07:56:21.638Z,14.96
2022-10-05T07:57:21.685Z,14.97
2022-10-05T07:58:21.719Z,14.94
2022-10-05T07:59:21.708Z,14.94
2022-10-05T08:00:21.861Z,14.93
2022-10-05T08:01:21.853Z,15.04
2022-10-05T08:02:21.913Z,15.04
2022-10-05T08:03:21.883Z,15.08
2022-10-05T08:04:21.868Z,15.14
2022-10-05T08:05:21.858Z,15.15
2022-10-05T08:06:21.911Z,15.12
2022-10-05T08:07:21.909Z,15.15
2022-10-05T08:08:21.912Z,15.14
2022-10-05T08:09:21.950Z,15.15
2022-10-05T08:10:22.030Z,15.25
2022-10-05T08:11:22.021Z,15.32
2022-10-05T08:12:22.021Z,15.29
2022-10-05T08:13:22.051Z,15.26
2022-10-05T08:14:22.111Z,15.30
2022-10-05T08:15:22.179Z,15.25
2022-10-05T08:16:22.271Z,15.23
2022-10-05T08:17:25.510Z,15.29
2022-10-05T08:18:22.254Z,15.33
2022-10-05T08:19:22.224Z,15.37
2022-10-05T08:20:22.226Z,15.35
2022-10-05T08:21:22.264Z,15.39
2022-10-05T08:22:22.305Z,15.35
2022-10-05T08:23:22.354Z,15.30
2022-10-05T08:24:22.365Z,15.35
2022-10-05T08:25:22.375Z,15.32
2022-10-05T08:26:22.405Z,15.29
2022-10-05T08:27:22.455Z,15.33
2022-10-05T08:28:22.584Z,15.32
2022-10-05T08:29:22.570Z,15.30
2022-10-05T08:30:22.587Z,15.30
2022-10-05T08:31:22.755Z,15.29
2022-10-05T08:32:22.718Z,15.27
2022-10-05T08:33:22.736Z,15.29
2022-10-05T08:34:22.748Z,15.36
2022-10-05T08:35:22.799Z,15.41
2022-10-05T08:36:22.880Z,15.36
2022-10-05T08:37:22.949Z,15.41
2022-10-05T08:38:22.961Z,15.35
2022-10-05T08:39:22.968Z,15.36
2022-10-05T08:40:23.001Z,15.35
2022-10-05T08:41:23.060Z,15.39
2022-10-05T08:42:23.081Z,15.45
2022-10-05T08:43:23.051Z,15.44
2022-10-05T08:44:23.122Z,15.47
2022-10-05T08:45:23.152Z,15.47
2022-10-05T08:46:23.245Z,15.50
2022-10-05T08:47:23.143Z,15.54
2022-10-05T08:48:23.185Z,15.52
2022-10-05T08:49:23.173Z,15.50
2022-10-05T08:50:23.194Z,15.52
2022-10-05T08:51:23.273Z,15.55
2022-10-05T08:52:23.322Z,15.59
2022-10-05T08:53:23.356Z,15.52
2022-10-05T08:54:23.415Z,15.51
2022-10-05T08:55:23.487Z,15.52
2022-10-05T08:56:28.467Z,15.55
2022-10-05T08:57:23.568Z,15.55
2022-10-05T08:58:23.627Z,15.54
2022-10-05T08:59:23.646Z,15.55
2022-10-05T09:00:23.677Z,15.55
2022-10-05T09:01:23.708Z,15.59
2022-10-05T09:02:23.738Z,15.57
2022-10-05T09:03:23.742Z,15.54
2022-10-05T09:04:23.728Z,15.51
2022-10-05T09:05:23.722Z,15.51
2022-10-05T09:06:23.759Z,15.51
2022-10-05T09:07:23.837Z,15.52
2022-10-05T09:08:23.871Z,15.55
2022-10-05T09:09:23.890Z,15.52
2022-10-05T09:10:23.892Z,15.51
2022-10-05T09:11:23.922Z,15.50
2022-10-05T09:12:23.951Z,15.48
2022-10-05T09:13:24.004Z,15.50
2022-10-05T09:14:24.073Z,15.51
2022-10-05T09:15:26.437Z,15.50
2022-10-05T09:16:24.229Z,15.50
2022-10-05T09:17:24.193Z,15.48
2022-10-05T09:18:24.182Z,15.44
2022-10-05T09:19:24.225Z,15.47
2022-10-05T09:20:24.274Z,15.48
2022-10-05T09:21:24.344Z,15.50
2022-10-05T09:22:24.364Z,15.50
2022-10-05T09:23:24.418Z,15.52
2022-10-05T09:24:24.466Z,15.52
2022-10-05T09:25:24.461Z,15.51
2022-10-05T09:26:24.532Z,15.52
2022-10-05T09:27:24.576Z,15.52
2022-10-05T09:28:24.596Z,15.52
2022-10-05T09:29:24.579Z,15.52
2022-10-05T09:30:24.648Z,15.52
2022-10-05T09:31:24.716Z,15.54
2022-10-05T09:32:24.688Z,15.51
2022-10-05T09:33:24.678Z,15.54
2022-10-05T09:34:24.728Z,15.52
2022-10-05T09:35:24.790Z,15.54
2022-10-05T09:36:24.829Z,15.57
2022-10-05T09:37:24.889Z,15.59
2022-10-05T09:38:24.917Z,15.62
2022-10-05T09:39:24.959Z,15.66
2022-10-05T09:41:50.993Z,15.69
2022-10-05T09:42:50.984Z,15.75
2022-10-05T09:43:50.993Z,15.76
2022-10-05T09:44:51.016Z,15.84
2022-10-05T09:45:51.102Z,15.87
2022-10-05T09:46:51.134Z,15.84
2022-10-05T09:47:51.112Z,15.91
2022-10-05T09:48:51.137Z,15.88
2022-10-05T09:49:51.365Z,15.98
2022-10-05T09:50:51.175Z,16.05
2022-10-05T09:51:51.227Z,16.08
2022-10-05T09:52:51.236Z,16.16
2022-10-05T09:53:51.277Z,16.22
2022-10-05T09:54:51.369Z,16.24
2022-10-05T09:55:51.367Z,16.29
2022-10-05T09:56:51.377Z,16.34
2022-10-05T09:57:53.160Z,16.36
2022-10-05T09:58:51.497Z,16.40
2022-10-05T09:59:51.541Z,16.49
2022-10-05T10:00:59.481Z,16.58
2022-10-05T10:01:52.274Z,16.65
2022-10-05T10:02:51.670Z,16.68
2022-10-05T10:03:51.649Z,16.72
2022-10-05T10:04:51.690Z,16.73
2022-10-05T10:05:51.751Z,16.84
2022-10-05T10:06:51.792Z,16.86
2022-10-05T10:07:51.804Z,16.95
2022-10-05T10:08:51.862Z,16.92
2022-10-05T10:09:51.915Z,16.83
2022-10-05T10:10:51.922Z,16.83
2022-10-05T10:11:51.913Z,16.83
2022-10-05T10:12:51.972Z,16.80
2022-10-05T10:13:52.015Z,16.84
2022-10-05T10:14:52.084Z,16.92
2022-10-05T10:15:52.215Z,16.89
2022-10-05T10:16:52.126Z,16.94
2022-10-05T10:17:52.164Z,16.89
2022-10-05T10:18:52.196Z,16.97
2022-10-05T10:19:52.276Z,17.04
2022-10-05T10:20:52.297Z,17.02
2022-10-05T10:21:52.298Z,16.99
2022-10-05T10:22:52.370Z,17.24
2022-10-05T10:23:52.348Z,17.54
2022-10-05T10:24:52.385Z,17.66
2022-10-05T10:25:52.397Z,17.79
2022-10-05T10:26:52.419Z,18.00
2022-10-05T10:27:52.637Z,18.19
2022-10-05T10:28:52.479Z,18.09
2022-10-05T10:29:52.502Z,18.26
2022-10-05T10:30:52.528Z,18.30
2022-10-05T10:31:52.540Z,18.42
2022-10-05T10:32:52.591Z,18.08
2022-10-05T10:33:52.591Z,18.06
2022-10-05T10:34:52.662Z,18.26
2022-10-05T10:35:52.693Z,18.43
2022-10-05T10:36:52.712Z,18.60
2022-10-05T10:37:52.775Z,19.01
2022-10-05T10:38:52.816Z,19.16
2022-10-05T10:39:52.869Z,18.98
2022-10-05T10:40:52.887Z,18.97
2022-10-05T10:41:52.956Z,19.05
2022-10-05T10:42:52.994Z,19.74
2022-10-05T10:43:52.996Z,19.38
2022-10-05T10:44:53.057Z,19.39
2022-10-05T10:45:53.047Z,19.81
2022-10-05T10:46:53.622Z,19.75
2022-10-05T10:47:53.077Z,19.75
2022-10-05T10:48:53.138Z,19.89
2022-10-05T10:49:53.148Z,20.22
2022-10-05T10:50:53.159Z,20.21
2022-10-05T10:51:53.156Z,20.02
2022-10-05T10:52:53.120Z,19.87
2022-10-05T10:53:53.140Z,19.87
2022-10-05T10:54:53.130Z,19.56
2022-10-05T10:55:53.121Z,19.55
2022-10-05T10:56:53.201Z,19.38
2022-10-05T10:57:53.168Z,19.24
2022-10-05T10:58:53.202Z,19.20
2022-10-05T10:59:53.193Z,18.97
2022-10-05T11:00:53.223Z,18.97
2022-10-05T11:01:53.362Z,19.01
2022-10-05T11:02:53.398Z,19.20
2022-10-05T11:03:53.304Z,18.89
2022-10-05T11:04:53.390Z,18.73
2022-10-05T11:05:53.358Z,18.63
2022-10-05T11:06:53.363Z,18.57
2022-10-05T11:07:53.375Z,18.68
2022-10-05T11:08:53.428Z,18.49
2022-10-05T11:09:53.472Z,18.70
2022-10-05T11:10:53.538Z,18.64
2022-10-05T11:11:53.557Z,18.60
2022-10-05T11:12:53.639Z,18.70
2022-10-05T11:13:53.689Z,18.53
2022-10-05T11:14:53.749Z,18.55
2022-10-05T11:15:53.927Z,18.57
2022-10-05T11:16:53.879Z,18.73
2022-10-05T11:17:53.911Z,18.76
2022-10-05T11:18:53.962Z,18.52
2022-10-05T11:20:09.276Z,18.43
2022-10-05T11:20:54.042Z,18.39
2022-10-05T11:21:54.084Z,18.24
2022-10-05T11:22:54.125Z,18.33
2022-10-05T11:23:54.143Z,18.36
2022-10-05T11:24:54.214Z,18.24
2022-10-05T11:25:54.266Z,18.23
2022-10-05T11:26:54.293Z,18.24
2022-10-05T11:27:54.396Z,18.30
2022-10-05T11:28:54.345Z,18.09
2022-10-05T11:29:54.386Z,18.03
2022-10-05T11:30:54.454Z,18.15
2022-10-05T11:31:54.560Z,18.15
2022-10-05T11:32:54.398Z,18.08
2022-10-05T11:33:54.397Z,18.11
2022-10-05T11:34:54.429Z,18.05
2022-10-05T11:35:54.419Z,18.00
2022-10-05T11:36:54.408Z,18.08
2022-10-05T11:37:54.478Z,18.09
2022-10-05T11:38:54.529Z,18.09
2022-10-05T11:39:54.581Z,18.12
2022-10-05T11:40:54.650Z,18.28
2022-10-05T11:41:54.670Z,18.23
2022-10-05T11:42:54.722Z,17.98
2022-10-05T11:43:54.741Z,18.15
2022-10-05T11:44:54.729Z,18.18
2022-10-05T11:45:54.712Z,18.19
2022-10-05T11:46:54.795Z,18.21
2022-10-05T11:47:54.792Z,18.18
2022-10-05T11:48:54.802Z,18.18
2022-10-05T11:49:54.794Z,18.24
2022-10-05T11:50:54.854Z,18.19
2022-10-05T11:51:54.933Z,18.15
2022-10-05T11:52:54.965Z,18.08
2022-10-05T11:53:55.006Z,18.06
2022-10-05T11:55:11.995Z,18.12
2022-10-05T11:55:55.106Z,18.06
2022-10-05T11:58:21.178Z,18.00
2022-10-05T11:59:21.201Z,18.06
2022-10-05T12:00:21.210Z,18.06
2022-10-05T12:01:21.219Z,18.00
2022-10-05T12:02:21.259Z,18.00
2022-10-05T12:03:21.352Z,17.98
2022-10-05T12:04:21.293Z,17.93
2022-10-05T12:05:21.340Z,17.91
2022-10-05T12:06:21.391Z,17.90
2022-10-05T12:07:21.436Z,17.88
2022-10-05T12:08:21.513Z,17.88
2022-10-05T12:09:21.512Z,17.90
2022-10-05T12:10:21.700Z,17.93
2022-10-05T12:11:21.591Z,17.91
2022-10-05T12:12:21.604Z,17.98
2022-10-05T12:13:21.633Z,18.05
2022-10-05T12:14:21.633Z,17.94
2022-10-05T12:15:21.684Z,17.90
2022-10-05T12:16:21.769Z,17.95
2022-10-05T12:17:21.726Z,18.03
2022-10-05T12:18:21.776Z,18.03
2022-10-05T12:19:21.816Z,18.05
2022-10-05T12:20:21.789Z,18.03
2022-10-05T12:21:21.795Z,18.12
2022-10-05T12:22:21.808Z,18.05
2022-10-05T12:23:21.868Z,18.05
2022-10-05T12:24:26.529Z,18.06
2022-10-05T12:25:21.919Z,18.09
2022-10-05T12:26:21.948Z,18.05
2022-10-05T12:27:21.970Z,18.03
2022-10-05T12:28:22.097Z,18.05
2022-10-05T12:29:22.082Z,18.06
2022-10-05T12:30:22.118Z,18.00
2022-10-05T12:31:22.168Z,18.00
2022-10-05T12:32:22.170Z,18.05
2022-10-05T12:33:22.161Z,18.09
2022-10-05T12:34:22.189Z,18.30
2022-10-05T12:35:36.559Z,18.21
2022-10-05T12:36:22.232Z,18.11
2022-10-05T12:37:22.303Z,18.02
2022-10-05T12:38:22.365Z,18.02
2022-10-05T12:39:22.382Z,17.98
2022-10-05T12:40:22.396Z,17.97
2022-10-05T12:41:22.447Z,18.11
2022-10-05T12:42:22.467Z,18.09
2022-10-05T12:43:22.506Z,18.16
2022-10-05T12:44:22.570Z,18.19
2022-10-05T12:45:22.613Z,18.13
2022-10-05T12:46:22.596Z,18.27
2022-10-05T12:47:22.667Z,18.31
2022-10-05T12:48:22.703Z,18.33
2022-10-05T12:49:22.728Z,18.34
2022-10-05T12:50:22.778Z,18.24
2022-10-05T12:51:22.869Z,18.16
2022-10-05T12:52:22.869Z,18.23
2022-10-05T12:53:22.899Z,18.08
2022-10-05T12:54:22.921Z,18.18
2022-10-05T12:55:22.931Z,18.18